Time;durP1;ratioP1;P1;durP2;ratioP2;P2;SDS_P1;SDS_P2;PMS_P1;PMS_P2;Temp;Humidity;BMP_temperature;BMP_pressure;BME280_temperature;BME280_humidity;BME280_pressure;Samples;Min_cycle;Max_cycle;Signal;HPM_P1;HPM_P2
2023/12/09 00:01:44;;;;;;;11.77;8.00;;;;;;;4.77;100.00;101203.16;5091489;28;20502;-70
2023/12/09 00:04:10;;;;;;;12.48;7.72;;;;;;;4.60;100.00;101180.81;5092611;28;20024;-70
2023/12/09 00:06:36;;;;;;;12.70;8.00;;;;;;;4.65;100.00;101194.53;5103636;28;20067;-70
2023/12/09 00:09:02;;;;;;;12.48;8.35;;;;;;;5.00;99.65;101192.88;5111982;28;20058;-70
2023/12/09 00:11:28;;;;;;;13.50;8.93;;;;;;;4.62;100.00;101188.66;5111964;28;20529;-70
2023/12/09 00:13:53;;;;;;;11.90;8.27;;;;;;;4.67;100.00;101187.22;5094727;28;20067;-70
2023/12/09 00:16:18;;;;;;;14.27;8.80;;;;;;;4.87;100.00;101176.41;5094830;28;20062;-69
2023/12/09 00:18:45;;;;;;;12.43;8.30;;;;;;;4.92;100.00;101182.94;5101680;28;20088;-70
2023/12/09 00:21:10;;;;;;;12.63;8.30;;;;;;;4.76;100.00;101182.78;5091091;28;20039;-70
2023/12/09 00:23:36;;;;;;;15.20;8.50;;;;;;;4.70;100.00;101178.94;5091076;28;20024;-70
2023/12/09 00:26:02;;;;;;;12.60;8.60;;;;;;;4.54;100.00;101181.44;5092541;28;20035;-71
2023/12/09 00:28:28;;;;;;;13.30;8.88;;;;;;;4.65;100.00;101159.88;5091762;28;20127;-71
2023/12/09 00:30:54;;;;;;;12.40;7.38;;;;;;;4.53;100.00;101177.06;5091065;28;20484;-69
2023/12/09 00:33:20;;;;;;;13.10;8.63;;;;;;;4.65;100.00;101177.69;5070873;28;20560;-70
2023/12/09 00:35:45;;;;;;;12.48;8.77;;;;;;;4.78;100.00;101177.31;5070428;28;20040;-70
2023/12/09 00:38:12;;;;;;;13.82;8.77;;;;;;;4.76;100.00;101155.31;5071829;28;20395;-70
2023/12/09 00:40:37;;;;;;;11.40;7.93;;;;;;;4.52;100.00;101172.72;5070609;28;20150;-70
2023/12/09 00:43:02;;;;;;;12.77;9.10;;;;;;;4.76;100.00;101181.97;5070375;28;20100;-70
2023/12/09 00:45:28;;;;;;;13.95;9.50;;;;;;;4.91;100.00;101188.44;5070579;28;20028;-69
2023/12/09 00:47:53;;;;;;;13.85;9.48;;;;;;;4.86;100.00;101174.72;5071711;28;20028;-69
2023/12/09 00:50:19;;;;;;;15.70;10.25;;;;;;;4.84;100.00;101171.38;5071711;28;20040;-70
2023/12/09 00:52:44;;;;;;;12.95;8.55;;;;;;;4.59;100.00;101179.13;5070369;28;20064;-69
2023/12/09 00:55:11;;;;;;;16.40;9.65;;;;;;;4.43;100.00;101163.78;5071645;28;20024;-70
2023/12/09 00:57:36;;;;;;;14.90;9.30;;;;;;;4.09;100.00;101165.41;5070256;28;20065;-70
2023/12/09 01:00:04;;;;;;;15.30;10.02;;;;;;;3.99;100.00;101144.16;5069951;28;20448;-70
2023/12/09 01:02:30;;;;;;;15.90;9.35;;;;;;;4.14;100.00;101160.47;5071300;28;20055;-70
2023/12/09 01:04:58;;;;;;;15.52;9.88;;;;;;;4.43;100.00;101157.63;5070477;28;20072;-71
2023/12/09 01:07:24;;;;;;;16.40;10.32;;;;;;;4.64;100.00;101160.88;5077319;28;20039;-71
2023/12/09 01:09:49;;;;;;;16.30;10.57;;;;;;;4.63;100.00;101161.84;5076990;28;20032;-71
2023/12/09 01:12:15;;;;;;;17.92;10.98;;;;;;;4.56;100.00;101162.59;5076313;28;20051;-70
2023/12/09 01:14:40;;;;;;;17.35;10.02;;;;;;;4.39;100.00;101151.78;5070981;28;20029;-71
2023/12/09 01:17:06;;;;;;;14.75;9.32;;;;;;;4.44;100.00;101164.66;5053494;28;20028;-70
2023/12/09 01:19:31;;;;;;;13.68;9.10;;;;;;;4.09;100.00;101163.59;5071497;28;20036;-71
2023/12/09 01:21:57;;;;;;;16.33;10.77;;;;;;;4.41;100.00;101162.31;5069540;28;20556;-72
2023/12/09 01:24:22;;;;;;;13.90;10.50;;;;;;;4.53;100.00;101153.06;5070780;28;20530;-70
2023/12/09 01:26:48;;;;;;;17.98;11.25;;;;;;;4.60;100.00;101156.84;5069791;28;20036;-71
2023/12/09 01:29:13;;;;;;;16.27;10.52;;;;;;;4.47;100.00;101153.72;5071315;28;20471;-70
2023/12/09 01:31:38;;;;;;;16.77;10.05;;;;;;;4.63;100.00;101156.50;5052781;28;20031;-72
2023/12/09 01:34:04;;;;;;;16.02;11.60;;;;;;;4.57;100.00;101133.16;5052857;28;20032;-72
2023/12/09 01:36:29;;;;;;;16.77;11.00;;;;;;;4.70;100.00;101160.25;5070561;28;20701;-71
2023/12/09 01:38:55;;;;;;;13.60;9.70;;;;;;;4.29;100.00;101145.66;5070716;28;20491;-72
2023/12/09 01:41:20;;;;;;;15.10;10.70;;;;;;;4.56;100.00;101154.59;5085900;28;20068;-72
2023/12/09 01:43:48;;;;;;;15.70;10.77;;;;;;;4.45;100.00;101148.50;5070758;28;20020;-71
2023/12/09 01:46:14;;;;;;;17.40;11.15;;;;;;;4.74;100.00;101126.16;5071133;28;20075;-72
2023/12/09 01:48:40;;;;;;;17.00;10.73;;;;;;;4.95;100.00;101144.47;5070493;28;20032;-71
2023/12/09 01:51:07;;;;;;;16.63;10.82;;;;;;;4.87;100.00;101133.75;5071172;28;20483;-71
2023/12/09 01:53:36;;;;;;;17.23;10.55;;;;;;;5.06;99.24;101146.88;5069852;28;20028;-69
2023/12/09 01:56:05;;;;;;;17.35;11.32;;;;;;;5.22;98.59;101143.50;5069600;28;20020;-71
2023/12/09 01:58:33;;;;;;;17.38;11.23;;;;;;;5.08;97.84;101144.91;5070798;28;20031;-69
2023/12/09 02:01:02;;;;;;;17.67;11.52;;;;;;;5.09;98.48;101148.41;5071280;28;20186;-71
2023/12/09 02:03:29;;;;;;;14.95;10.73;;;;;;;4.90;99.52;101144.09;5073144;28;20051;-70
2023/12/09 02:05:55;;;;;;;16.98;11.07;;;;;;;4.97;99.21;101154.97;5075578;28;20107;-69
2023/12/09 02:08:20;;;;;;;17.60;10.32;;;;;;;4.89;98.55;101148.59;5071547;28;20115;-69
2023/12/09 02:10:53;;;;;;;17.35;11.02;;;;;;;4.90;100.00;101157.41;5070431;28;20024;-69
2023/12/09 02:13:25;;;;;;;15.63;10.55;;;;;;;4.78;99.87;101130.16;5070713;28;20031;-69
2023/12/09 02:16:20;;;;;;;15.52;10.63;;;;;;;4.99;99.61;101151.16;5069292;28;20017;-70
2023/12/09 02:18:48;;;;;;;17.80;11.32;;;;;;;4.80;100.00;101132.66;5066058;28;20051;-69
2023/12/09 02:21:14;;;;;;;15.80;10.55;;;;;;;5.03;99.08;101141.84;5068797;28;20029;-70
2023/12/09 02:23:40;;;;;;;19.45;11.90;;;;;;;5.16;98.53;101142.28;5070236;28;20031;-69
2023/12/09 02:26:16;;;;;;;16.17;10.95;;;;;;;5.02;97.37;101113.53;5068822;28;20033;-70
2023/12/09 02:28:49;;;;;;;15.65;10.00;;;;;;;4.84;98.73;101134.91;5071121;28;20056;-69
2023/12/09 02:31:23;;;;;;;17.23;11.52;;;;;;;4.89;99.88;101137.09;5072827;28;20036;-70
2023/12/09 02:33:49;;;;;;;16.98;10.88;;;;;;;4.67;99.98;101128.59;5073800;28;20036;-70
2023/12/09 02:36:19;;;;;;;15.77;11.02;;;;;;;4.83;100.00;101132.38;5073765;28;20025;-70
2023/12/09 02:38:47;;;;;;;19.20;11.68;;;;;;;4.98;99.22;101117.50;5072730;28;20016;-70
2023/12/09 02:41:13;;;;;;;14.25;10.00;;;;;;;5.04;98.60;101124.88;5072244;28;20024;-70
2023/12/09 02:43:40;;;;;;;16.30;11.60;;;;;;;4.87;99.82;101131.09;5073890;28;20407;-70
2023/12/09 02:46:06;;;;;;;16.88;11.15;;;;;;;4.85;99.40;101127.72;5072851;28;20028;-70
2023/12/09 02:48:31;;;;;;;15.50;10.73;;;;;;;5.14;98.00;101117.63;5072593;28;20078;-70
2023/12/09 02:50:56;;;;;;;15.27;10.77;;;;;;;4.87;99.18;101115.94;5072505;28;20153;-70
2023/12/09 02:53:22;;;;;;;17.52;11.38;;;;;;;5.08;98.85;101120.06;5072516;28;20064;-70
2023/12/09 02:55:47;;;;;;;19.00;11.25;;;;;;;4.99;98.33;101119.16;5072696;28;20020;-70
2023/12/09 02:58:12;;;;;;;17.95;11.73;;;;;;;5.21;97.49;101115.16;5073866;28;20442;-70
2023/12/09 03:00:38;;;;;;;17.38;11.27;;;;;;;4.69;100.00;101099.09;5072046;28;20503;-70
2023/12/09 03:03:03;;;;;;;17.67;11.85;;;;;;;4.71;100.00;101105.94;5073719;28;20070;-70
2023/12/09 03:05:28;;;;;;;17.67;11.20;;;;;;;4.80;100.00;101095.34;5073789;28;20103;-70
2023/12/09 03:07:54;;;;;;;16.98;11.55;;;;;;;4.47;100.00;101095.09;5073899;28;20263;-70
2023/12/09 03:10:19;;;;;;;17.33;11.85;;;;;;;4.68;100.00;101076.94;5072595;28;20453;-70
2023/12/09 03:12:44;;;;;;;19.17;11.93;;;;;;;4.94;100.00;101097.47;5055541;28;20122;-69
2023/12/09 03:15:10;;;;;;;17.73;12.20;;;;;;;5.12;98.97;101087.59;5072516;28;20058;-70
2023/12/09 03:17:36;;;;;;;18.40;12.13;;;;;;;4.81;99.96;101091.72;5072609;28;20024;-70
2023/12/09 03:20:02;;;;;;;19.02;12.45;;;;;;;4.77;99.96;101066.31;5073691;28;20020;-70
2023/12/09 03:22:29;;;;;;;18.60;12.65;;;;;;;5.22;98.21;101092.00;5073208;28;20036;-70
2023/12/09 03:24:54;;;;;;;18.95;12.07;;;;;;;5.12;97.83;101095.59;5073256;28;20024;-69
2023/12/09 03:27:20;;;;;;;16.52;11.93;;;;;;;5.23;97.65;101099.00;5071474;28;20487;-70
2023/12/09 03:29:45;;;;;;;18.45;12.80;;;;;;;5.15;97.54;101094.44;5071649;28;20039;-70
2023/12/09 03:32:10;;;;;;;22.40;12.95;;;;;;;5.14;98.10;101090.94;5055241;28;20668;-70
2023/12/09 03:34:36;;;;;;;21.45;13.25;;;;;;;4.94;98.65;101094.81;5073058;28;20029;-70
2023/12/09 03:37:01;;;;;;;21.02;12.95;;;;;;;4.89;100.00;101089.94;5071454;28;20487;-70
2023/12/09 03:39:26;;;;;;;17.25;11.98;;;;;;;4.90;100.00;101101.41;5072245;28;20102;-69
2023/12/09 03:41:52;;;;;;;20.02;13.38;;;;;;;5.03;99.82;101104.53;5054033;28;20028;-69
2023/12/09 03:44:17;;;;;;;19.70;12.93;;;;;;;5.11;99.50;101095.75;5072783;28;20502;-69
2023/12/09 03:46:44;;;;;;;21.25;13.35;;;;;;;5.26;97.88;101099.50;5069654;28;20045;-69
2023/12/09 03:49:10;;;;;;;22.08;13.55;;;;;;;5.27;98.46;101103.03;5055280;28;20032;-69
2023/12/09 03:51:35;;;;;;;17.83;12.50;;;;;;;5.04;99.19;101106.22;5072211;28;20043;-68
2023/12/09 03:54:00;;;;;;;19.13;13.27;;;;;;;5.11;99.18;101099.25;5071260;28;20407;-69
2023/12/09 03:56:26;;;;;;;19.02;13.32;;;;;;;4.98;100.00;101104.16;5069817;28;20024;-70
2023/12/09 03:58:53;;;;;;;20.08;13.20;;;;;;;4.85;100.00;101093.91;5069271;28;20036;-70
2023/12/09 04:01:18;;;;;;;21.00;13.68;;;;;;;4.91;100.00;101084.44;5069032;28;20075;-71
2023/12/09 04:03:44;;;;;;;20.70;13.50;;;;;;;5.03;99.99;101101.03;5069666;28;20068;-70
2023/12/09 04:06:10;;;;;;;23.60;14.38;;;;;;;4.67;99.16;101024.63;5070147;28;20063;-69
2023/12/09 04:08:36;;;;;;;21.23;14.70;;;;;;;5.13;99.26;101094.63;5072383;28;20114;-69
2023/12/09 04:11:03;;;;;;;24.33;14.95;;;;;;;5.03;99.60;101079.69;5071011;28;20491;-69
2023/12/09 04:13:28;;;;;;;21.92;13.77;;;;;;;5.00;99.44;101091.53;5072504;28;20039;-70
2023/12/09 04:15:55;;;;;;;23.52;14.43;;;;;;;4.98;99.44;101101.50;5069876;28;20032;-70
2023/12/09 04:18:21;;;;;;;24.40;14.68;;;;;;;5.14;98.10;101087.44;5071073;28;20435;-70
2023/12/09 04:20:46;;;;;;;23.13;14.48;;;;;;;4.97;100.00;101098.97;5071119;28;20159;-70
2023/12/09 04:23:11;;;;;;;25.75;14.88;;;;;;;5.22;98.42;101094.66;5074198;28;20058;-70
2023/12/09 04:25:37;;;;;;;23.30;14.32;;;;;;;5.19;98.48;101088.63;5059518;28;20107;-71
2023/12/09 04:28:02;;;;;;;25.38;15.40;;;;;;;5.22;97.66;101100.00;5072663;28;20109;-70
2023/12/09 04:30:28;;;;;;;26.45;15.30;;;;;;;5.34;96.48;101088.06;5070215;28;20078;-70
2023/12/09 04:32:53;;;;;;;25.65;15.18;;;;;;;5.25;97.71;101089.84;5085600;28;20056;-70
2023/12/09 04:35:19;;;;;;;27.58;15.55;;;;;;;5.30;97.84;101086.72;5069959;28;20032;-70
2023/12/09 04:37:44;;;;;;;27.00;15.63;;;;;;;5.39;96.94;101086.56;5052139;28;20029;-70
2023/12/09 04:40:12;;;;;;;29.15;15.40;;;;;;;5.08;98.91;101083.56;5070010;28;20116;-70
2023/12/09 04:42:38;;;;;;;25.38;14.95;;;;;;;5.04;99.04;101065.38;5071651;28;20033;-70
2023/12/09 04:45:05;;;;;;;25.55;15.45;;;;;;;5.00;99.12;101064.00;5070721;28;20090;-70
2023/12/09 04:47:30;;;;;;;26.67;14.50;;;;;;;4.96;100.00;101079.47;5070417;28;20048;-70
2023/12/09 04:49:57;;;;;;;26.58;15.90;;;;;;;5.03;99.87;101085.84;5070050;28;20082;-69
2023/12/09 04:52:23;;;;;;;26.50;16.15;;;;;;;5.00;100.00;101075.53;5085059;28;20029;-69
2023/12/09 04:54:48;;;;;;;30.75;15.50;;;;;;;5.03;99.97;101080.53;5068335;28;20016;-70
2023/12/09 04:57:14;;;;;;;26.85;14.57;;;;;;;4.98;99.60;101058.00;5051091;28;20040;-70
2023/12/09 04:59:39;;;;;;;27.50;15.43;;;;;;;5.26;97.97;101075.50;5069828;28;20045;-70
2023/12/09 05:02:05;;;;;;;27.05;16.00;;;;;;;5.09;100.00;101076.41;5070179;28;20131;-70
2023/12/09 05:04:30;;;;;;;29.88;16.00;;;;;;;5.21;99.14;101079.66;5070597;28;20056;-70
2023/12/09 05:06:56;;;;;;;28.65;15.40;;;;;;;5.24;98.17;101056.16;5086881;28;20120;-70
2023/12/09 05:09:24;;;;;;;31.52;16.60;;;;;;;5.46;96.79;101072.59;5069770;28;20028;-69
2023/12/09 05:11:50;;;;;;;29.20;15.90;;;;;;;5.34;97.23;101069.41;5070889;28;20052;-69
2023/12/09 05:14:15;;;;;;;24.52;14.52;;;;;;;4.84;100.00;101068.25;5071260;28;20056;-69
2023/12/09 05:16:41;;;;;;;31.27;16.30;;;;;;;4.99;100.00;101062.31;5071060;28;20058;-69
2023/12/09 05:19:07;;;;;;;30.75;15.95;;;;;;;4.93;100.00;101037.97;5071656;28;20086;-69
2023/12/09 05:21:32;;;;;;;27.33;15.77;;;;;;;4.99;100.00;101055.16;5074544;28;20025;-70
2023/12/09 05:23:58;;;;;;;29.63;16.67;;;;;;;4.89;100.00;101046.44;5073540;28;20044;-69
2023/12/09 05:26:25;;;;;;;32.60;17.35;;;;;;;5.09;100.00;101052.38;5070297;28;20035;-70
2023/12/09 05:28:51;;;;;;;34.45;16.88;;;;;;;5.19;99.93;101051.28;5071525;28;20028;-69
2023/12/09 05:31:17;;;;;;;36.20;18.30;;;;;;;4.85;100.00;101047.75;5071412;28;20368;-68
2023/12/09 05:33:42;;;;;;;34.58;17.55;;;;;;;4.98;100.00;101050.00;5071101;28;20030;-69
2023/12/09 05:36:08;;;;;;;32.72;16.95;;;;;;;5.10;100.00;101043.38;5070432;28;20111;-68
2023/12/09 05:38:34;;;;;;;37.25;18.38;;;;;;;5.14;100.00;101039.44;5053668;28;20047;-69
2023/12/09 05:41:00;;;;;;;37.53;18.42;;;;;;;5.08;100.00;101032.88;5070243;28;20029;-69
2023/12/09 05:43:25;;;;;;;35.60;17.73;;;;;;;5.03;100.00;101034.34;5069866;28;20029;-68
2023/12/09 05:45:51;;;;;;;39.38;18.42;;;;;;;5.12;100.00;101031.56;5086593;28;20060;-70
2023/12/09 05:48:16;;;;;;;36.00;18.15;;;;;;;5.10;100.00;101022.91;5071317;28;20024;-69
2023/12/09 05:50:41;;;;;;;38.40;18.75;;;;;;;5.14;100.00;101028.75;5070828;28;20483;-69
2023/12/09 05:53:07;;;;;;;34.85;18.10;;;;;;;5.23;99.24;101022.47;5070689;28;20055;-69
2023/12/09 05:55:33;;;;;;;43.03;20.13;;;;;;;5.30;99.20;101028.84;5070909;28;20111;-69
2023/12/09 05:57:58;;;;;;;37.13;19.13;;;;;;;5.18;99.69;101030.94;5070909;28;20031;-69
2023/12/09 06:00:23;;;;;;;34.75;18.95;;;;;;;5.28;99.19;101035.34;5070908;28;20121;-69
2023/12/09 06:02:49;;;;;;;42.65;20.20;;;;;;;5.31;99.30;101024.34;5070093;28;20094;-70
2023/12/09 06:05:14;;;;;;;44.30;20.65;;;;;;;4.95;99.12;100965.81;5073843;28;20041;-70
2023/12/09 06:07:41;;;;;;;39.58;20.00;;;;;;;5.04;100.00;101028.88;5073267;28;20078;-70
2023/12/09 06:10:08;;;;;;;41.70;20.50;;;;;;;5.31;99.09;101025.19;5073315;28;20441;-69
2023/12/09 06:12:33;;;;;;;46.58;21.25;;;;;;;5.44;98.57;101023.91;5074789;28;20436;-70
2023/12/09 06:14:58;;;;;;;45.30;20.55;;;;;;;5.14;99.64;101010.09;5090218;28;20115;-70
2023/12/09 06:17:24;;;;;;;51.15;22.42;;;;;;;5.09;100.00;101025.72;5074344;28;20028;-70
2023/12/09 06:19:49;;;;;;;44.78;22.02;;;;;;;5.34;99.34;101026.69;5074245;28;20075;-69
2023/12/09 06:22:15;;;;;;;44.28;21.33;;;;;;;5.05;100.00;101019.88;5056138;28;20052;-70
2023/12/09 06:24:43;;;;;;;49.95;23.00;;;;;;;5.12;100.00;100996.06;5072756;28;20029;-69
2023/12/09 06:27:09;;;;;;;48.30;22.33;;;;;;;5.13;100.00;101009.25;5073737;28;20037;-69
2023/12/09 06:29:35;;;;;;;45.17;21.75;;;;;;;5.11;100.00;101007.75;5072525;28;20115;-70
2023/12/09 06:32:00;;;;;;;50.95;22.80;;;;;;;5.27;99.45;100996.31;5057185;28;20561;-70
2023/12/09 06:34:25;;;;;;;51.42;22.45;;;;;;;5.10;99.14;101006.91;5074055;28;20447;-70
2023/12/09 06:36:51;;;;;;;48.05;21.05;;;;;;;4.84;100.00;101006.09;5056388;28;20107;-70
2023/12/09 06:39:16;;;;;;;49.05;23.85;;;;;;;5.21;100.00;101007.63;5056029;28;20029;-70
2023/12/09 06:41:41;;;;;;;53.08;23.80;;;;;;;5.14;100.00;100986.91;5073869;28;20063;-70
2023/12/09 06:44:07;;;;;;;50.58;23.25;;;;;;;5.18;100.00;101004.25;5073046;28;20035;-70
2023/12/09 06:46:36;;;;;;;48.08;21.80;;;;;;;5.06;100.00;100999.34;5074051;28;20020;-69
2023/12/09 06:49:01;;;;;;;51.53;23.42;;;;;;;5.42;98.76;100994.69;5089771;28;20036;-69
2023/12/09 06:51:27;;;;;;;49.45;22.58;;;;;;;5.33;98.45;101003.66;5074920;28;20036;-68
2023/12/09 06:53:52;;;;;;;48.40;23.60;;;;;;;5.19;99.27;100994.44;5074241;28;20086;-71
2023/12/09 06:56:22;;;;;;;53.08;22.80;;;;;;;5.31;99.16;100987.00;5074109;28;20036;-71
2023/12/09 06:58:48;;;;;;;52.08;23.92;;;;;;;5.24;99.83;100984.13;5055646;28;20411;-68
2023/12/09 07:01:19;;;;;;;50.00;20.80;;;;;;;5.02;100.00;100982.84;5079867;28;20486;-70
2023/12/09 07:03:45;;;;;;;52.10;24.08;;;;;;;5.14;100.00;100984.25;5091995;28;20038;-72
2023/12/09 07:06:11;;;;;;;57.80;24.52;;;;;;;5.32;99.16;100975.31;5092414;28;20394;-71
2023/12/09 07:08:36;;;;;;;50.60;24.27;;;;;;;5.28;98.81;100972.13;5092562;28;20043;-71
2023/12/09 07:11:01;;;;;;;54.03;24.65;;;;;;;5.00;100.00;100976.00;5094518;28;20454;-73
2023/12/09 07:13:27;;;;;;;56.97;24.88;;;;;;;4.99;100.00;100980.50;5093924;28;20125;-72
2023/12/09 07:15:53;;;;;;;53.05;25.60;;;;;;;5.00;100.00;100947.50;5091801;28;20024;-71
2023/12/09 07:18:19;;;;;;;57.83;25.23;;;;;;;5.40;99.30;100970.84;5058461;28;20032;-68
2023/12/09 07:20:44;;;;;;;58.88;24.75;;;;;;;5.27;99.62;100961.63;5075335;28;20036;-76
2023/12/09 07:23:09;;;;;;;52.15;24.90;;;;;;;5.17;100.00;100948.41;5093299;28;20131;-69
2023/12/09 07:25:35;;;;;;;55.25;24.85;;;;;;;5.43;98.42;100956.38;5092956;28;20067;-71
2023/12/09 07:28:00;;;;;;;54.22;24.73;;;;;;;5.29;99.04;100951.63;5095328;28;20031;-70
2023/12/09 07:30:25;;;;;;;47.17;23.73;;;;;;;5.13;99.84;100950.56;5093677;28;20028;-70
2023/12/09 07:32:51;;;;;;;54.53;24.35;;;;;;;5.45;98.61;100951.69;5076352;28;20020;-71
2023/12/09 07:35:17;;;;;;;54.67;24.90;;;;;;;5.40;98.02;100951.34;5093529;28;20123;-72
2023/12/09 07:37:43;;;;;;;56.53;25.63;;;;;;;5.35;98.46;100949.16;5076475;28;20048;-74
2023/12/09 07:40:11;;;;;;;55.35;24.48;;;;;;;5.36;97.96;100955.31;5102360;28;20028;-73
2023/12/09 07:42:37;;;;;;;53.40;24.52;;;;;;;5.39;98.24;100949.66;5096547;28;20540;-70
2023/12/09 07:45:03;;;;;;;49.78;23.88;;;;;;;5.57;96.87;100950.38;5095487;28;20036;-71
2023/12/09 07:47:28;;;;;;;48.30;23.23;;;;;;;5.58;96.84;100946.72;5093593;28;20024;-71
2023/12/09 07:49:53;;;;;;;52.90;24.30;;;;;;;5.68;95.80;100940.41;5093049;28;20089;-71
2023/12/09 07:52:19;;;;;;;50.80;23.38;;;;;;;5.48;95.97;100945.19;5092394;28;20111;-71
2023/12/09 07:54:44;;;;;;;52.85;24.20;;;;;;;5.49;96.08;100950.34;5092065;28;20047;-72
2023/12/09 07:57:10;;;;;;;45.20;20.02;;;;;;;4.87;99.00;100944.44;5074555;28;20070;-70
2023/12/09 07:59:36;;;;;;;46.70;23.33;;;;;;;5.30;98.67;100943.47;5092290;28;20055;-71
2023/12/09 08:02:02;;;;;;;45.90;22.23;;;;;;;5.23;98.71;100939.78;5092167;28;20471;-71
2023/12/09 08:04:27;;;;;;;53.28;23.67;;;;;;;5.35;98.33;100935.81;5071089;28;20055;-70
2023/12/09 08:06:53;;;;;;;50.67;23.02;;;;;;;5.35;97.74;100934.97;5081114;28;20031;-71
2023/12/09 08:09:19;;;;;;;41.85;22.23;;;;;;;5.13;98.21;100902.56;5092679;28;20058;-71
2023/12/09 08:11:44;;;;;;;49.10;22.38;;;;;;;5.46;97.40;100933.81;5091135;28;20052;-71
2023/12/09 08:14:11;;;;;;;46.13;22.63;;;;;;;5.46;97.88;100937.31;5091732;28;20035;-71
2023/12/09 08:16:36;;;;;;;45.85;22.83;;;;;;;5.60;96.77;100938.56;5090588;28;20028;-71
2023/12/09 08:19:02;;;;;;;40.67;20.95;;;;;;;5.45;97.59;100932.16;5092195;28;20016;-71
2023/12/09 08:21:27;;;;;;;49.83;21.65;;;;;;;5.47;97.33;100930.19;5090493;28;20032;-71
2023/12/09 08:23:54;;;;;;;41.42;21.02;;;;;;;5.29;98.30;100932.94;5092227;28;20073;-71
2023/12/09 08:26:19;;;;;;;43.83;21.05;;;;;;;5.18;98.85;100926.06;5092863;28;20024;-71
2023/12/09 08:28:45;;;;;;;43.42;21.42;;;;;;;5.29;98.89;100938.28;5093415;28;20439;-71
2023/12/09 08:31:10;;;;;;;40.22;19.67;;;;;;;5.27;98.75;100924.28;5090429;28;20024;-70
2023/12/09 08:33:36;;;;;;;36.45;19.52;;;;;;;5.47;97.70;100923.00;5091210;28;20024;-71
2023/12/09 08:36:01;;;;;;;38.75;20.50;;;;;;;5.48;97.60;100924.66;5083367;28;20037;-70
2023/12/09 08:38:26;;;;;;;39.88;19.60;;;;;;;5.22;97.96;100915.91;5104297;28;20027;-71
2023/12/09 08:40:53;;;;;;;41.58;19.70;;;;;;;5.24;98.80;100925.44;5079054;28;20064;-71
2023/12/09 08:43:19;;;;;;;36.92;18.88;;;;;;;5.48;97.68;100919.34;5092969;28;20085;-71
2023/12/09 08:45:44;;;;;;;39.08;20.73;;;;;;;5.52;97.04;100920.66;5090848;28;20483;-70
2023/12/09 08:48:10;;;;;;;36.20;19.17;;;;;;;5.50;96.67;100919.19;5090502;28;20111;-71
2023/12/09 08:50:35;;;;;;;35.97;19.13;;;;;;;5.54;96.77;100923.19;5090303;28;20429;-71
2023/12/09 08:53:02;;;;;;;35.92;18.45;;;;;;;5.36;96.97;100915.28;5088902;28;20028;-71
2023/12/09 08:55:28;;;;;;;34.80;18.23;;;;;;;5.34;97.67;100922.63;5055857;28;20055;-71
2023/12/09 08:57:53;;;;;;;33.92;17.73;;;;;;;5.41;97.50;100924.47;5089538;28;20054;-71
2023/12/09 09:00:20;;;;;;;32.03;16.80;;;;;;;5.50;95.77;100908.50;5072480;28;20398;-71
2023/12/09 09:02:47;;;;;;;37.00;19.50;;;;;;;5.42;96.98;100914.66;5107289;28;20027;-70
2023/12/09 09:05:12;;;;;;;36.60;19.15;;;;;;;5.44;96.62;100893.16;5092216;28;20027;-70
2023/12/09 09:07:40;;;;;;;34.55;19.13;;;;;;;5.72;95.71;100907.84;5073511;28;20478;-72
2023/12/09 09:10:07;;;;;;;29.77;16.90;;;;;;;5.46;96.97;100905.31;5090215;28;20057;-70
2023/12/09 09:12:32;;;;;;;31.70;19.02;;;;;;;5.52;96.60;100899.31;5091676;28;20021;-70
2023/12/09 09:14:57;;;;;;;61.97;35.15;;;;;;;5.45;96.78;100900.97;5091961;28;20032;-70
2023/12/09 09:17:23;;;;;;;31.33;17.85;;;;;;;5.61;95.51;100898.34;5091480;28;20143;-69
2023/12/09 09:19:50;;;;;;;38.17;19.25;;;;;;;5.61;95.51;100895.66;5073553;28;20077;-70
2023/12/09 09:22:15;;;;;;;31.17;16.80;;;;;;;5.78;95.07;100898.38;5091335;28;20020;-70
2023/12/09 09:24:40;;;;;;;31.10;16.60;;;;;;;5.59;95.27;100888.81;5091420;28;20031;-71
2023/12/09 09:27:07;;;;;;;34.15;20.15;;;;;;;5.36;95.78;100883.25;5090469;28;20042;-70
2023/12/09 09:29:32;;;;;;;30.17;17.45;;;;;;;5.26;97.28;100883.41;5091578;28;20057;-70
2023/12/09 09:31:58;;;;;;;27.52;15.52;;;;;;;5.32;96.56;100888.09;5073326;28;20024;-70
2023/12/09 09:34:23;;;;;;;27.60;16.45;;;;;;;5.54;95.78;100881.31;5090420;28;20035;-70
2023/12/09 09:36:48;;;;;;;31.13;16.13;;;;;;;5.56;95.88;100876.66;5091634;28;20502;-70
2023/12/09 09:39:14;;;;;;;24.83;14.00;;;;;;;5.20;96.62;100873.41;5073530;28;20509;-69
2023/12/09 09:42:05;;;;;;;26.00;14.98;;;;;;;5.46;96.91;100877.78;5091595;28;20032;-70
2023/12/09 09:44:37;;;;;;;27.98;15.13;;;;;;;5.55;96.11;100871.47;5052865;28;20043;-70
2023/12/09 09:47:04;;;;;;;28.63;16.10;;;;;;;5.58;95.43;100866.63;5090319;28;20035;-70
2023/12/09 09:49:31;;;;;;;24.05;14.95;;;;;;;5.39;96.26;100853.59;5073050;28;20032;-70
2023/12/09 09:51:57;;;;;;;31.38;15.88;;;;;;;5.50;94.82;100853.28;5089954;28;20038;-70
2023/12/09 09:54:27;;;;;;;23.35;13.82;;;;;;;5.24;96.65;100861.41;5091109;28;20049;-70
2023/12/09 09:56:53;;;;;;;25.95;14.55;;;;;;;5.38;96.26;100860.75;5089624;28;20526;-70
2023/12/09 09:59:20;;;;;;;25.23;14.95;;;;;;;5.56;95.62;100863.31;5091643;28;20032;-70
2023/12/09 10:01:46;;;;;;;26.42;14.73;;;;;;;5.69;93.89;100852.13;5091746;28;20115;-70
2023/12/09 10:04:12;;;;;;;22.90;13.60;;;;;;;5.42;94.81;100861.28;5089442;28;20116;-69
2023/12/09 10:06:38;;;;;;;27.05;15.27;;;;;;;5.45;95.54;100862.78;5090823;28;20020;-70
2023/12/09 10:09:04;;;;;;;24.52;15.10;;;;;;;5.54;95.44;100862.63;5089588;28;20123;-70
2023/12/09 10:11:29;;;;;;;24.10;13.88;;;;;;;5.63;94.84;100858.97;5090094;28;20103;-69
2023/12/09 10:13:55;;;;;;;23.08;13.43;;;;;;;5.39;95.02;100845.59;5073223;28;20039;-69
2023/12/09 10:16:21;;;;;;;23.70;13.82;;;;;;;5.57;95.36;100838.28;5091403;28;20031;-69
2023/12/09 10:18:47;;;;;;;22.38;13.45;;;;;;;5.24;95.15;100815.22;5091315;28;20040;-70
2023/12/09 10:21:13;;;;;;;21.17;12.25;;;;;;;4.79;97.18;100835.91;5090946;28;20036;-70
2023/12/09 10:23:40;;;;;;;20.38;12.57;;;;;;;4.74;97.67;100834.75;5091128;28;20035;-70
2023/12/09 10:26:09;;;;;;;18.60;11.50;;;;;;;5.09;96.67;100829.19;5091106;28;20028;-70
2023/12/09 10:28:35;;;;;;;21.80;13.50;;;;;;;5.13;96.69;100808.34;5091130;28;20051;-70
2023/12/09 10:31:01;;;;;;;21.75;13.20;;;;;;;5.42;96.04;100831.91;5090972;28;20027;-70
2023/12/09 10:33:32;;;;;;;22.02;12.45;;;;;;;5.05;96.73;100798.50;5091407;28;20020;-69
2023/12/09 10:35:58;;;;;;;21.00;12.63;;;;;;;5.31;96.16;100817.06;5091145;28;20066;-70
2023/12/09 10:38:24;;;;;;;21.13;12.38;;;;;;;5.14;96.46;100818.88;5091520;28;20143;-70
2023/12/09 10:40:50;;;;;;;22.15;13.38;;;;;;;5.12;96.79;100799.53;5072973;28;20036;-69
2023/12/09 10:43:15;;;;;;;19.98;12.95;;;;;;;5.42;95.62;100803.41;5089584;28;20070;-69
2023/12/09 10:45:41;;;;;;;22.25;13.00;;;;;;;5.52;94.98;100800.56;5090407;28;20490;-69
2023/12/09 10:48:07;;;;;;;20.85;13.27;;;;;;;5.61;93.78;100796.91;5072767;28;20485;-69
2023/12/09 10:50:33;;;;;;;22.13;12.27;;;;;;;5.40;95.35;100788.56;5093044;28;20027;-69
2023/12/09 10:52:58;;;;;;;22.02;12.88;;;;;;;5.61;94.11;100774.72;5094530;28;20024;-69
2023/12/09 10:55:24;;;;;;;21.42;12.98;;;;;;;5.47;94.73;100791.41;5095095;28;20067;-69
2023/12/09 10:57:50;;;;;;;21.05;13.38;;;;;;;5.36;94.71;100776.53;5102376;28;20119;-69
2023/12/09 11:00:18;;;;;;;23.60;13.55;;;;;;;5.53;93.32;100764.88;5104106;28;20056;-69
2023/12/09 11:02:45;;;;;;;24.42;13.57;;;;;;;5.43;94.10;100769.56;5096613;28;20121;-69
2023/12/09 11:05:11;;;;;;;21.95;12.93;;;;;;;5.21;95.30;100773.69;5093942;28;20093;-69
2023/12/09 11:07:38;;;;;;;20.30;12.43;;;;;;;5.37;94.22;100773.72;5094139;28;20450;-69
2023/12/09 11:10:08;;;;;;;23.08;13.85;;;;;;;5.37;94.79;100749.69;5092909;28;20028;-70